sensor_id;sensor_type;location;lat;lon;timestamp;temperature;humidity
37782;DHT22;23621;50.878;4.584;2024-02-21T00:01:17;16.50;71.90
37782;DHT22;23621;50.878;4.584;2024-02-21T00:03:18;16.40;71.90
37782;DHT22;23621;50.878;4.584;2024-02-21T00:05:20;16.40;72.00
37782;DHT22;23621;50.878;4.584;2024-02-21T00:07:20;16.30;72.00
37782;DHT22;23621;50.878;4.584;2024-02-21T00:09:21;16.40;72.70
37782;DHT22;23621;50.878;4.584;2024-02-21T00:11:21;16.40;72.10
37782;DHT22;23621;50.878;4.584;2024-02-21T00:13:22;16.30;72.10
37782;DHT22;23621;50.878;4.584;2024-02-21T00:15:23;16.30;72.20
37782;DHT22;23621;50.878;4.584;2024-02-21T00:17:24;16.30;72.20
37782;DHT22;23621;50.878;4.584;2024-02-21T00:19:26;16.20;72.40
37782;DHT22;23621;50.878;4.584;2024-02-21T00:21:27;16.20;72.30
37782;DHT22;23621;50.878;4.584;2024-02-21T00:23:27;16.30;72.50
37782;DHT22;23621;50.878;4.584;2024-02-21T00:25:29;16.30;72.30
37782;DHT22;23621;50.878;4.584;2024-02-21T00:27:29;16.30;72.20
37782;DHT22;23621;50.878;4.584;2024-02-21T00:29:30;16.30;72.10
37782;DHT22;23621;50.878;4.584;2024-02-21T00:31:31;16.30;72.00
37782;DHT22;23621;50.878;4.584;2024-02-21T00:33:31;16.30;72.20
37782;DHT22;23621;50.878;4.584;2024-02-21T00:35:32;16.30;72.10
37782;DHT22;23621;50.878;4.584;2024-02-21T00:37:32;16.30;72.10
37782;DHT22;23621;50.878;4.584;2024-02-21T00:39:33;16.30;72.00
37782;DHT22;23621;50.878;4.584;2024-02-21T00:41:34;16.30;72.00
37782;DHT22;23621;50.878;4.584;2024-02-21T00:43:34;16.40;72.00
37782;DHT22;23621;50.878;4.584;2024-02-21T00:45:35;16.40;72.00
37782;DHT22;23621;50.878;4.584;2024-02-21T00:47:36;16.40;72.00
37782;DHT22;23621;50.878;4.584;2024-02-21T00:49:36;16.40;72.00
37782;DHT22;23621;50.878;4.584;2024-02-21T00:51:37;16.40;71.80
37782;DHT22;23621;50.878;4.584;2024-02-21T00:53:37;16.30;71.70
37782;DHT22;23621;50.878;4.584;2024-02-21T00:55:38;16.30;71.70
37782;DHT22;23621;50.878;4.584;2024-02-21T00:57:40;16.40;71.80
37782;DHT22;23621;50.878;4.584;2024-02-21T00:59:41;16.40;71.50
37782;DHT22;23621;50.878;4.584;2024-02-21T01:01:43;16.40;71.50
37782;DHT22;23621;50.878;4.584;2024-02-21T01:03:44;16.40;71.40
37782;DHT22;23621;50.878;4.584;2024-02-21T01:05:44;16.40;71.40
37782;DHT22;23621;50.878;4.584;2024-02-21T01:07:45;16.40;71.30
37782;DHT22;23621;50.878;4.584;2024-02-21T01:09:46;16.50;71.40
37782;DHT22;23621;50.878;4.584;2024-02-21T01:11:46;16.50;71.40
37782;DHT22;23621;50.878;4.584;2024-02-21T01:13:47;16.50;71.40
37782;DHT22;23621;50.878;4.584;2024-02-21T01:15:48;16.60;71.40
37782;DHT22;23621;50.878;4.584;2024-02-21T01:17:48;16.50;71.40
37782;DHT22;23621;50.878;4.584;2024-02-21T01:19:51;16.50;71.50
37782;DHT22;23621;50.878;4.584;2024-02-21T01:21:52;16.50;71.60
37782;DHT22;23621;50.878;4.584;2024-02-21T01:23:52;16.40;71.80
37782;DHT22;23621;50.878;4.584;2024-02-21T01:25:53;16.40;71.80
37782;DHT22;23621;50.878;4.584;2024-02-21T01:27:55;16.40;71.70
37782;DHT22;23621;50.878;4.584;2024-02-21T01:29:56;16.40;71.80
37782;DHT22;23621;50.878;4.584;2024-02-21T01:31:56;16.30;71.80
37782;DHT22;23621;50.878;4.584;2024-02-21T01:33:57;16.40;71.90
37782;DHT22;23621;50.878;4.584;2024-02-21T01:35:58;16.40;71.80
37782;DHT22;23621;50.878;4.584;2024-02-21T01:37:59;16.30;71.80
37782;DHT22;23621;50.878;4.584;2024-02-21T01:39:59;16.30;71.80
37782;DHT22;23621;50.878;4.584;2024-02-21T01:42:00;16.30;71.70
37782;DHT22;23621;50.878;4.584;2024-02-21T01:44:01;16.30;71.80
37782;DHT22;23621;50.878;4.584;2024-02-21T01:46:01;16.30;71.80
37782;DHT22;23621;50.878;4.584;2024-02-21T01:48:03;16.30;71.70
37782;DHT22;23621;50.878;4.584;2024-02-21T01:50:04;16.30;71.80
37782;DHT22;23621;50.878;4.584;2024-02-21T01:52:05;16.30;71.60
37782;DHT22;23621;50.878;4.584;2024-02-21T01:54:06;16.30;71.60
37782;DHT22;23621;50.878;4.584;2024-02-21T01:56:07;16.30;71.50
37782;DHT22;23621;50.878;4.584;2024-02-21T01:58:07;16.30;71.60
37782;DHT22;23621;50.878;4.584;2024-02-21T02:00:09;16.30;71.60
37782;DHT22;23621;50.878;4.584;2024-02-21T02:02:10;16.30;71.70
37782;DHT22;23621;50.878;4.584;2024-02-21T02:04:11;16.30;71.70
37782;DHT22;23621;50.878;4.584;2024-02-21T02:06:12;16.30;71.70
37782;DHT22;23621;50.878;4.584;2024-02-21T02:08:18;16.30;71.70
37782;DHT22;23621;50.878;4.584;2024-02-21T02:10:19;16.40;72.20
37782;DHT22;23621;50.878;4.584;2024-02-21T02:12:19;16.40;71.80
37782;DHT22;23621;50.878;4.584;2024-02-21T02:14:20;16.40;71.80
37782;DHT22;23621;50.878;4.584;2024-02-21T02:16:21;16.40;71.80
37782;DHT22;23621;50.878;4.584;2024-02-21T02:18:21;16.40;71.90
37782;DHT22;23621;50.878;4.584;2024-02-21T02:20:22;16.30;72.50
37782;DHT22;23621;50.878;4.584;2024-02-21T02:22:28;16.30;71.80
37782;DHT22;23621;50.878;4.584;2024-02-21T02:24:29;16.10;72.10
37782;DHT22;23621;50.878;4.584;2024-02-21T02:26:30;16.00;72.00
37782;DHT22;23621;50.878;4.584;2024-02-21T02:28:30;16.00;72.20
37782;DHT22;23621;50.878;4.584;2024-02-21T02:30:35;16.00;72.30
37782;DHT22;23621;50.878;4.584;2024-02-21T02:32:39;16.00;72.30
37782;DHT22;23621;50.878;4.584;2024-02-21T02:34:39;16.10;72.40
37782;DHT22;23621;50.878;4.584;2024-02-21T02:36:40;16.10;72.40
37782;DHT22;23621;50.878;4.584;2024-02-21T02:38:41;16.20;72.30
37782;DHT22;23621;50.878;4.584;2024-02-21T02:40:42;16.20;72.20
37782;DHT22;23621;50.878;4.584;2024-02-21T02:42:42;16.20;72.10
37782;DHT22;23621;50.878;4.584;2024-02-21T02:44:43;16.20;72.00
37782;DHT22;23621;50.878;4.584;2024-02-21T02:46:43;16.20;72.10
37782;DHT22;23621;50.878;4.584;2024-02-21T02:48:44;16.20;71.90
37782;DHT22;23621;50.878;4.584;2024-02-21T02:50:45;16.30;72.00
37782;DHT22;23621;50.878;4.584;2024-02-21T02:52:46;16.30;72.00
37782;DHT22;23621;50.878;4.584;2024-02-21T02:54:47;16.30;71.80
37782;DHT22;23621;50.878;4.584;2024-02-21T02:56:52;16.20;71.70
37782;DHT22;23621;50.878;4.584;2024-02-21T02:58:52;16.30;71.80
37782;DHT22;23621;50.878;4.584;2024-02-21T03:00:53;16.20;71.70
37782;DHT22;23621;50.878;4.584;2024-02-21T03:02:54;16.30;71.70
37782;DHT22;23621;50.878;4.584;2024-02-21T03:04:54;16.30;71.70
37782;DHT22;23621;50.878;4.584;2024-02-21T03:06:55;16.30;71.70
37782;DHT22;23621;50.878;4.584;2024-02-21T03:08:56;16.20;71.70
37782;DHT22;23621;50.878;4.584;2024-02-21T03:10:56;16.20;71.70
37782;DHT22;23621;50.878;4.584;2024-02-21T03:12:57;16.30;71.70
37782;DHT22;23621;50.878;4.584;2024-02-21T03:14:58;16.30;71.60
37782;DHT22;23621;50.878;4.584;2024-02-21T03:16:59;16.20;71.50
37782;DHT22;23621;50.878;4.584;2024-02-21T03:19:00;16.30;71.80
37782;DHT22;23621;50.878;4.584;2024-02-21T03:21:00;16.30;71.80
37782;DHT22;23621;50.878;4.584;2024-02-21T03:23:01;16.30;71.80
37782;DHT22;23621;50.878;4.584;2024-02-21T03:25:02;16.30;71.90
37782;DHT22;23621;50.878;4.584;2024-02-21T03:27:02;16.20;71.70
37782;DHT22;23621;50.878;4.584;2024-02-21T03:29:07;16.20;71.80
37782;DHT22;23621;50.878;4.584;2024-02-21T03:31:08;16.30;72.00
37782;DHT22;23621;50.878;4.584;2024-02-21T03:33:08;16.30;72.60
37782;DHT22;23621;50.878;4.584;2024-02-21T03:35:09;16.30;71.70
37782;DHT22;23621;50.878;4.584;2024-02-21T03:37:10;16.30;71.70
37782;DHT22;23621;50.878;4.584;2024-02-21T03:39:10;16.40;71.80
37782;DHT22;23621;50.878;4.584;2024-02-21T03:41:11;16.40;71.70
37782;DHT22;23621;50.878;4.584;2024-02-21T03:43:12;16.40;71.70
37782;DHT22;23621;50.878;4.584;2024-02-21T03:45:13;16.40;71.60
37782;DHT22;23621;50.878;4.584;2024-02-21T03:47:13;16.40;71.60
37782;DHT22;23621;50.878;4.584;2024-02-21T03:49:14;16.40;71.60
37782;DHT22;23621;50.878;4.584;2024-02-21T03:51:15;16.40;71.50
37782;DHT22;23621;50.878;4.584;2024-02-21T03:53:16;16.40;71.50
37782;DHT22;23621;50.878;4.584;2024-02-21T03:55:19;16.50;71.70
37782;DHT22;23621;50.878;4.584;2024-02-21T03:57:19;16.40;71.50
37782;DHT22;23621;50.878;4.584;2024-02-21T03:59:20;16.40;71.50
37782;DHT22;23621;50.878;4.584;2024-02-21T04:01:22;16.40;71.50
37782;DHT22;23621;50.878;4.584;2024-02-21T04:03:23;16.40;71.50
37782;DHT22;23621;50.878;4.584;2024-02-21T04:05:24;16.40;71.60
37782;DHT22;23621;50.878;4.584;2024-02-21T04:07:24;16.30;71.50
37782;DHT22;23621;50.878;4.584;2024-02-21T04:09:25;16.30;71.60
37782;DHT22;23621;50.878;4.584;2024-02-21T04:11:26;16.30;71.70
37782;DHT22;23621;50.878;4.584;2024-02-21T04:13:26;16.30;71.60
37782;DHT22;23621;50.878;4.584;2024-02-21T04:15:27;16.30;71.60
37782;DHT22;23621;50.878;4.584;2024-02-21T04:17:28;16.30;71.60
37782;DHT22;23621;50.878;4.584;2024-02-21T04:19:28;16.20;71.50
37782;DHT22;23621;50.878;4.584;2024-02-21T04:21:29;16.20;71.60
37782;DHT22;23621;50.878;4.584;2024-02-21T04:23:29;16.30;71.70
37782;DHT22;23621;50.878;4.584;2024-02-21T04:25:30;16.20;71.60
37782;DHT22;23621;50.878;4.584;2024-02-21T04:27:31;16.20;71.50
37782;DHT22;23621;50.878;4.584;2024-02-21T04:29:32;16.20;71.70
37782;DHT22;23621;50.878;4.584;2024-02-21T04:31:33;16.10;71.70
37782;DHT22;23621;50.878;4.584;2024-02-21T04:33:34;16.10;71.70
37782;DHT22;23621;50.878;4.584;2024-02-21T04:35:38;16.10;71.70
37782;DHT22;23621;50.878;4.584;2024-02-21T04:37:39;16.20;71.80
37782;DHT22;23621;50.878;4.584;2024-02-21T04:39:40;16.20;71.70
37782;DHT22;23621;50.878;4.584;2024-02-21T04:41:41;16.20;71.70
37782;DHT22;23621;50.878;4.584;2024-02-21T04:43:41;16.30;71.70
37782;DHT22;23621;50.878;4.584;2024-02-21T04:45:42;16.30;71.70
37782;DHT22;23621;50.878;4.584;2024-02-21T04:47:43;16.30;71.70
37782;DHT22;23621;50.878;4.584;2024-02-21T04:49:43;16.30;71.60
37782;DHT22;23621;50.878;4.584;2024-02-21T04:51:44;16.30;71.60
37782;DHT22;23621;50.878;4.584;2024-02-21T04:53:45;16.30;71.60
37782;DHT22;23621;50.878;4.584;2024-02-21T04:55:47;16.40;71.70
37782;DHT22;23621;50.878;4.584;2024-02-21T04:57:48;16.40;71.70
37782;DHT22;23621;50.878;4.584;2024-02-21T04:59:48;16.40;71.60
37782;DHT22;23621;50.878;4.584;2024-02-21T05:01:49;16.30;71.60
37782;DHT22;23621;50.878;4.584;2024-02-21T05:03:49;16.30;71.60
37782;DHT22;23621;50.878;4.584;2024-02-21T05:05:50;16.30;71.70
37782;DHT22;23621;50.878;4.584;2024-02-21T05:07:51;16.30;71.70
37782;DHT22;23621;50.878;4.584;2024-02-21T05:09:51;16.30;71.70
37782;DHT22;23621;50.878;4.584;2024-02-21T05:11:52;16.30;71.60
37782;DHT22;23621;50.878;4.584;2024-02-21T05:13:53;16.30;71.60
37782;DHT22;23621;50.878;4.584;2024-02-21T05:15:53;16.40;71.70
37782;DHT22;23621;50.878;4.584;2024-02-21T05:17:54;16.30;71.60
37782;DHT22;23621;50.878;4.584;2024-02-21T05:19:55;16.30;71.50
37782;DHT22;23621;50.878;4.584;2024-02-21T05:21:55;16.40;71.60
37782;DHT22;23621;50.878;4.584;2024-02-21T05:23:56;16.30;71.50
37782;DHT22;23621;50.878;4.584;2024-02-21T05:25:57;16.30;71.60
37782;DHT22;23621;50.878;4.584;2024-02-21T05:27:57;16.30;71.50
37782;DHT22;23621;50.878;4.584;2024-02-21T05:30:03;16.30;71.50
37782;DHT22;23621;50.878;4.584;2024-02-21T05:32:04;16.30;71.60
37782;DHT22;23621;50.878;4.584;2024-02-21T05:34:04;16.30;71.60
37782;DHT22;23621;50.878;4.584;2024-02-21T05:36:05;16.30;71.60
37782;DHT22;23621;50.878;4.584;2024-02-21T05:38:07;16.30;71.60
37782;DHT22;23621;50.878;4.584;2024-02-21T05:40:12;16.30;71.60
37782;DHT22;23621;50.878;4.584;2024-02-21T05:42:13;16.30;71.70
37782;DHT22;23621;50.878;4.584;2024-02-21T05:44:15;16.30;71.70
37782;DHT22;23621;50.878;4.584;2024-02-21T05:46:19;16.30;71.70
37782;DHT22;23621;50.878;4.584;2024-02-21T05:48:20;16.30;71.70
37782;DHT22;23621;50.878;4.584;2024-02-21T05:50:21;16.30;71.60
37782;DHT22;23621;50.878;4.584;2024-02-21T05:52:23;16.30;71.60
37782;DHT22;23621;50.878;4.584;2024-02-21T05:54:24;16.30;71.60
37782;DHT22;23621;50.878;4.584;2024-02-21T05:56:25;16.30;71.60
37782;DHT22;23621;50.878;4.584;2024-02-21T05:58:26;16.30;71.60
37782;DHT22;23621;50.878;4.584;2024-02-21T06:00:26;16.30;71.60
37782;DHT22;23621;50.878;4.584;2024-02-21T06:02:27;16.30;71.70
37782;DHT22;23621;50.878;4.584;2024-02-21T06:04:28;16.30;71.70
37782;DHT22;23621;50.878;4.584;2024-02-21T06:06:28;16.30;71.70
37782;DHT22;23621;50.878;4.584;2024-02-21T06:08:29;16.30;71.60
37782;DHT22;23621;50.878;4.584;2024-02-21T06:10:30;16.30;71.70
37782;DHT22;23621;50.878;4.584;2024-02-21T06:12:30;16.20;71.50
37782;DHT22;23621;50.878;4.584;2024-02-21T06:14:31;16.20;71.50
37782;DHT22;23621;50.878;4.584;2024-02-21T06:16:31;16.20;71.50
37782;DHT22;23621;50.878;4.584;2024-02-21T06:18:32;16.20;71.50
37782;DHT22;23621;50.878;4.584;2024-02-21T06:20:33;16.30;71.60
37782;DHT22;23621;50.878;4.584;2024-02-21T06:22:36;16.30;71.60
37782;DHT22;23621;50.878;4.584;2024-02-21T06:24:37;16.30;71.50
37782;DHT22;23621;50.878;4.584;2024-02-21T06:26:40;16.20;71.50
37782;DHT22;23621;50.878;4.584;2024-02-21T06:28:40;16.30;71.60
37782;DHT22;23621;50.878;4.584;2024-02-21T06:30:41;16.30;71.50
37782;DHT22;23621;50.878;4.584;2024-02-21T06:32:42;16.30;71.50
37782;DHT22;23621;50.878;4.584;2024-02-21T06:34:43;16.30;71.50
37782;DHT22;23621;50.878;4.584;2024-02-21T06:36:45;16.30;71.50
37782;DHT22;23621;50.878;4.584;2024-02-21T06:38:45;16.30;71.40
37782;DHT22;23621;50.878;4.584;2024-02-21T06:40:46;16.30;71.50
37782;DHT22;23621;50.878;4.584;2024-02-21T06:42:50;16.30;71.50
37782;DHT22;23621;50.878;4.584;2024-02-21T06:44:52;16.30;72.30
37782;DHT22;23621;50.878;4.584;2024-02-21T06:46:52;16.30;71.70
37782;DHT22;23621;50.878;4.584;2024-02-21T06:48:55;16.30;71.70
37782;DHT22;23621;50.878;4.584;2024-02-21T06:50:58;16.30;71.80
37782;DHT22;23621;50.878;4.584;2024-02-21T06:52:59;16.30;71.80
37782;DHT22;23621;50.878;4.584;2024-02-21T06:55:00;16.30;72.00
37782;DHT22;23621;50.878;4.584;2024-02-21T06:57:00;16.30;72.00
37782;DHT22;23621;50.878;4.584;2024-02-21T06:59:01;16.20;72.10
37782;DHT22;23621;50.878;4.584;2024-02-21T07:01:03;16.20;72.20
37782;DHT22;23621;50.878;4.584;2024-02-21T07:03:04;16.30;72.40
37782;DHT22;23621;50.878;4.584;2024-02-21T07:05:05;16.30;72.60
37782;DHT22;23621;50.878;4.584;2024-02-21T07:07:06;16.30;72.80
37782;DHT22;23621;50.878;4.584;2024-02-21T07:09:06;16.30;72.90
37782;DHT22;23621;50.878;4.584;2024-02-21T07:11:07;16.30;73.10
37782;DHT22;23621;50.878;4.584;2024-02-21T07:13:08;16.30;73.20
37782;DHT22;23621;50.878;4.584;2024-02-21T07:15:08;16.20;73.20
37782;DHT22;23621;50.878;4.584;2024-02-21T07:17:09;16.30;73.40
37782;DHT22;23621;50.878;4.584;2024-02-21T07:19:10;16.30;73.50
37782;DHT22;23621;50.878;4.584;2024-02-21T07:21:11;16.30;73.50
37782;DHT22;23621;50.878;4.584;2024-02-21T07:23:12;16.30;73.80
37782;DHT22;23621;50.878;4.584;2024-02-21T07:25:13;16.20;73.70
37782;DHT22;23621;50.878;4.584;2024-02-21T07:27:15;16.30;73.90
37782;DHT22;23621;50.878;4.584;2024-02-21T07:29:16;16.30;74.00
37782;DHT22;23621;50.878;4.584;2024-02-21T07:31:17;16.30;74.10
37782;DHT22;23621;50.878;4.584;2024-02-21T07:33:17;16.30;74.20
37782;DHT22;23621;50.878;4.584;2024-02-21T07:35:18;16.30;74.20
37782;DHT22;23621;50.878;4.584;2024-02-21T07:37:19;16.30;74.20
37782;DHT22;23621;50.878;4.584;2024-02-21T07:39:19;16.30;74.30
37782;DHT22;23621;50.878;4.584;2024-02-21T07:41:20;16.30;74.40
37782;DHT22;23621;50.878;4.584;2024-02-21T07:43:21;16.30;74.40
37782;DHT22;23621;50.878;4.584;2024-02-21T07:45:22;16.30;74.40
37782;DHT22;23621;50.878;4.584;2024-02-21T07:47:24;16.30;74.50
37782;DHT22;23621;50.878;4.584;2024-02-21T07:49:25;16.20;74.50
37782;DHT22;23621;50.878;4.584;2024-02-21T07:51:28;16.20;74.60
37782;DHT22;23621;50.878;4.584;2024-02-21T07:53:28;16.20;74.70
37782;DHT22;23621;50.878;4.584;2024-02-21T07:55:29;16.10;74.60
37782;DHT22;23621;50.878;4.584;2024-02-21T07:57:30;16.10;74.60
37782;DHT22;23621;50.878;4.584;2024-02-21T07:59:31;16.10;74.60
37782;DHT22;23621;50.878;4.584;2024-02-21T08:01:31;16.10;74.60
37782;DHT22;23621;50.878;4.584;2024-02-21T08:03:32;16.20;74.60
37782;DHT22;23621;50.878;4.584;2024-02-21T08:05:34;16.20;74.50
37782;DHT22;23621;50.878;4.584;2024-02-21T08:07:35;16.20;74.50
37782;DHT22;23621;50.878;4.584;2024-02-21T08:09:36;16.20;74.50
37782;DHT22;23621;50.878;4.584;2024-02-21T08:11:38;16.20;74.40
37782;DHT22;23621;50.878;4.584;2024-02-21T08:13:39;16.20;74.40
37782;DHT22;23621;50.878;4.584;2024-02-21T08:15:39;16.30;74.40
37782;DHT22;23621;50.878;4.584;2024-02-21T08:17:42;16.30;74.40
37782;DHT22;23621;50.878;4.584;2024-02-21T08:19:42;16.30;74.10
37782;DHT22;23621;50.878;4.584;2024-02-21T08:21:43;16.30;74.00
37782;DHT22;23621;50.878;4.584;2024-02-21T08:23:43;16.30;73.90
37782;DHT22;23621;50.878;4.584;2024-02-21T08:25:45;16.30;73.80
37782;DHT22;23621;50.878;4.584;2024-02-21T08:27:45;16.30;73.70
37782;DHT22;23621;50.878;4.584;2024-02-21T08:29:46;16.30;73.50
37782;DHT22;23621;50.878;4.584;2024-02-21T08:31:47;16.30;73.40
37782;DHT22;23621;50.878;4.584;2024-02-21T08:33:47;16.30;73.30
37782;DHT22;23621;50.878;4.584;2024-02-21T08:35:48;16.30;73.10
37782;DHT22;23621;50.878;4.584;2024-02-21T08:37:48;16.20;73.00
37782;DHT22;23621;50.878;4.584;2024-02-21T08:39:49;16.20;72.90
37782;DHT22;23621;50.878;4.584;2024-02-21T08:41:50;16.20;72.90
37782;DHT22;23621;50.878;4.584;2024-02-21T08:43:52;16.20;72.80
37782;DHT22;23621;50.878;4.584;2024-02-21T08:45:54;16.20;72.80
37782;DHT22;23621;50.878;4.584;2024-02-21T08:47:54;16.20;72.80
37782;DHT22;23621;50.878;4.584;2024-02-21T08:49:55;16.30;72.80
37782;DHT22;23621;50.878;4.584;2024-02-21T08:51:56;16.30;72.70
37782;DHT22;23621;50.878;4.584;2024-02-21T08:53:56;16.30;72.60
37782;DHT22;23621;50.878;4.584;2024-02-21T08:55:57;16.30;72.60
37782;DHT22;23621;50.878;4.584;2024-02-21T08:58:00;16.30;72.60
37782;DHT22;23621;50.878;4.584;2024-02-21T09:00:01;16.20;72.50
37782;DHT22;23621;50.878;4.584;2024-02-21T09:02:07;16.20;72.30
37782;DHT22;23621;50.878;4.584;2024-02-21T09:04:09;16.20;72.40
37782;DHT22;23621;50.878;4.584;2024-02-21T09:06:10;16.30;72.40
37782;DHT22;23621;50.878;4.584;2024-02-21T09:08:11;16.20;72.20
37782;DHT22;23621;50.878;4.584;2024-02-21T09:10:11;16.20;72.10
37782;DHT22;23621;50.878;4.584;2024-02-21T09:12:12;16.10;71.90
37782;DHT22;23621;50.878;4.584;2024-02-21T09:14:15;16.20;72.00
37782;DHT22;23621;50.878;4.584;2024-02-21T09:16:16;16.20;72.10
37782;DHT22;23621;50.878;4.584;2024-02-21T09:18:17;16.20;72.10
37782;DHT22;23621;50.878;4.584;2024-02-21T09:20:17;16.20;71.90
37782;DHT22;23621;50.878;4.584;2024-02-21T09:22:18;16.20;72.10
37782;DHT22;23621;50.878;4.584;2024-02-21T09:24:19;16.20;72.00
37782;DHT22;23621;50.878;4.584;2024-02-21T09:26:19;16.20;71.90
37782;DHT22;23621;50.878;4.584;2024-02-21T09:28:20;16.30;72.10
37782;DHT22;23621;50.878;4.584;2024-02-21T09:30:21;16.30;72.00
37782;DHT22;23621;50.878;4.584;2024-02-21T09:32:21;16.30;72.00
37782;DHT22;23621;50.878;4.584;2024-02-21T09:34:22;16.30;71.80
37782;DHT22;23621;50.878;4.584;2024-02-21T09:36:23;16.40;71.90
37782;DHT22;23621;50.878;4.584;2024-02-21T09:38:23;16.40;71.80
37782;DHT22;23621;50.878;4.584;2024-02-21T09:40:24;16.50;71.80
37782;DHT22;23621;50.878;4.584;2024-02-21T09:42:37;16.50;71.80
37782;DHT22;23621;50.878;4.584;2024-02-21T09:44:38;16.50;71.80
37782;DHT22;23621;50.878;4.584;2024-02-21T09:46:45;16.60;71.90
37782;DHT22;23621;50.878;4.584;2024-02-21T09:49:04;16.60;71.90
37782;DHT22;23621;50.878;4.584;2024-02-21T09:51:09;16.70;71.70
37782;DHT22;23621;50.878;4.584;2024-02-21T09:53:12;16.70;71.60
37782;DHT22;23621;50.878;4.584;2024-02-21T09:55:17;16.70;71.40
37782;DHT22;23621;50.878;4.584;2024-02-21T09:57:20;16.70;71.60
37782;DHT22;23621;50.878;4.584;2024-02-21T09:59:23;16.70;71.50
37782;DHT22;23621;50.878;4.584;2024-02-21T10:01:25;16.70;71.50
37782;DHT22;23621;50.878;4.584;2024-02-21T10:03:26;16.70;71.50
37782;DHT22;23621;50.878;4.584;2024-02-21T10:05:26;16.80;71.60
37782;DHT22;23621;50.878;4.584;2024-02-21T10:07:27;16.80;71.60
37782;DHT22;23621;50.878;4.584;2024-02-21T10:09:29;16.80;71.50
37782;DHT22;23621;50.878;4.584;2024-02-21T10:11:29;16.70;71.30
37782;DHT22;23621;50.878;4.584;2024-02-21T10:13:31;16.80;71.40
37782;DHT22;23621;50.878;4.584;2024-02-21T10:15:32;16.80;71.50
37782;DHT22;23621;50.878;4.584;2024-02-21T10:17:32;16.80;71.60
37782;DHT22;23621;50.878;4.584;2024-02-21T10:19:33;16.70;71.20
37782;DHT22;23621;50.878;4.584;2024-02-21T10:21:34;16.80;71.20
37782;DHT22;23621;50.878;4.584;2024-02-21T10:23:51;16.80;71.30
37782;DHT22;23621;50.878;4.584;2024-02-21T10:25:52;16.80;70.90
37782;DHT22;23621;50.878;4.584;2024-02-21T10:27:53;16.60;71.50
37782;DHT22;23621;50.878;4.584;2024-02-21T10:29:53;16.70;71.40
37782;DHT22;23621;50.878;4.584;2024-02-21T10:34:07;16.90;71.70
37782;DHT22;23621;50.878;4.584;2024-02-21T10:36:10;16.90;71.60
37782;DHT22;23621;50.878;4.584;2024-02-21T10:38:11;17.00;71.70
37782;DHT22;23621;50.878;4.584;2024-02-21T10:40:12;17.00;71.50
37782;DHT22;23621;50.878;4.584;2024-02-21T10:42:14;17.10;71.30
37782;DHT22;23621;50.878;4.584;2024-02-21T10:44:18;17.00;71.10
37782;DHT22;23621;50.878;4.584;2024-02-21T10:46:21;17.00;71.00
37782;DHT22;23621;50.878;4.584;2024-02-21T10:48:39;17.00;70.80
37782;DHT22;23621;50.878;4.584;2024-02-21T10:50:57;16.90;71.00
37782;DHT22;23621;50.878;4.584;2024-02-21T10:53:20;16.90;71.30
37782;DHT22;23621;50.878;4.584;2024-02-21T10:55:38;17.00;71.10
37782;DHT22;23621;50.878;4.584;2024-02-21T10:57:49;17.00;70.70
37782;DHT22;23621;50.878;4.584;2024-02-21T10:59:51;17.00;70.50
37782;DHT22;23621;50.878;4.584;2024-02-21T11:01:53;16.90;70.50
37782;DHT22;23621;50.878;4.584;2024-02-21T11:03:56;16.70;70.70
37782;DHT22;23621;50.878;4.584;2024-02-21T11:05:58;16.80;70.70
37782;DHT22;23621;50.878;4.584;2024-02-21T11:08:02;16.60;71.00
37782;DHT22;23621;50.878;4.584;2024-02-21T11:10:04;16.50;70.90
37782;DHT22;23621;50.878;4.584;2024-02-21T11:12:07;16.50;70.90
37782;DHT22;23621;50.878;4.584;2024-02-21T11:14:18;16.50;71.00
37782;DHT22;23621;50.878;4.584;2024-02-21T11:16:25;16.50;71.10
37782;DHT22;23621;50.878;4.584;2024-02-21T11:18:26;16.60;71.00
37782;DHT22;23621;50.878;4.584;2024-02-21T11:20:34;16.80;70.90
37782;DHT22;23621;50.878;4.584;2024-02-21T11:22:41;16.90;70.90
37782;DHT22;23621;50.878;4.584;2024-02-21T11:24:42;17.00;70.90
37782;DHT22;23621;50.878;4.584;2024-02-21T11:26:43;17.00;70.50
37782;DHT22;23621;50.878;4.584;2024-02-21T11:28:44;16.80;70.10
37782;DHT22;23621;50.878;4.584;2024-02-21T11:30:45;16.60;70.20
37782;DHT22;23621;50.878;4.584;2024-02-21T11:32:46;16.50;70.60
37782;DHT22;23621;50.878;4.584;2024-02-21T11:35:01;16.80;70.70
37782;DHT22;23621;50.878;4.584;2024-02-21T11:37:15;16.80;70.20
37782;DHT22;23621;50.878;4.584;2024-02-21T11:39:20;16.80;70.50
37782;DHT22;23621;50.878;4.584;2024-02-21T11:41:22;16.60;70.00
37782;DHT22;23621;50.878;4.584;2024-02-21T11:43:22;16.60;70.40
37782;DHT22;23621;50.878;4.584;2024-02-21T11:45:25;16.60;70.20
37782;DHT22;23621;50.878;4.584;2024-02-21T11:47:28;16.50;70.30
37782;DHT22;23621;50.878;4.584;2024-02-21T11:49:29;16.50;70.40
37782;DHT22;23621;50.878;4.584;2024-02-21T11:51:30;16.50;70.20
37782;DHT22;23621;50.878;4.584;2024-02-21T11:53:31;16.70;70.30
37782;DHT22;23621;50.878;4.584;2024-02-21T11:55:33;16.80;70.10
37782;DHT22;23621;50.878;4.584;2024-02-21T11:57:34;16.70;69.80
37782;DHT22;23621;50.878;4.584;2024-02-21T11:59:41;16.70;69.70
37782;DHT22;23621;50.878;4.584;2024-02-21T12:01:42;16.80;69.80
37782;DHT22;23621;50.878;4.584;2024-02-21T12:03:43;16.80;69.80
37782;DHT22;23621;50.878;4.584;2024-02-21T12:05:49;16.90;70.00
37782;DHT22;23621;50.878;4.584;2024-02-21T12:07:51;17.00;69.80
37782;DHT22;23621;50.878;4.584;2024-02-21T12:09:52;16.80;69.60
37782;DHT22;23621;50.878;4.584;2024-02-21T12:11:59;16.80;69.60
37782;DHT22;23621;50.878;4.584;2024-02-21T12:14:01;16.80;69.40
37782;DHT22;23621;50.878;4.584;2024-02-21T12:16:05;16.70;69.40
37782;DHT22;23621;50.878;4.584;2024-02-21T12:18:06;16.50;69.40
37782;DHT22;23621;50.878;4.584;2024-02-21T12:20:07;16.50;69.70
37782;DHT22;23621;50.878;4.584;2024-02-21T12:22:18;16.70;69.80
37782;DHT22;23621;50.878;4.584;2024-02-21T12:24:28;16.80;69.90
37782;DHT22;23621;50.878;4.584;2024-02-21T12:26:29;16.90;69.50
37782;DHT22;23621;50.878;4.584;2024-02-21T12:28:30;16.60;69.50
37782;DHT22;23621;50.878;4.584;2024-02-21T12:30:30;16.60;69.80
37782;DHT22;23621;50.878;4.584;2024-02-21T12:32:33;16.50;69.60
37782;DHT22;23621;50.878;4.584;2024-02-21T12:34:34;16.50;69.80
37782;DHT22;23621;50.878;4.584;2024-02-21T12:36:41;16.70;69.80
37782;DHT22;23621;50.878;4.584;2024-02-21T12:38:47;16.70;69.40
37782;DHT22;23621;50.878;4.584;2024-02-21T12:40:49;16.80;69.50
37782;DHT22;23621;50.878;4.584;2024-02-21T12:42:49;17.00;69.60
37782;DHT22;23621;50.878;4.584;2024-02-21T12:44:50;16.70;69.60
37782;DHT22;23621;50.878;4.584;2024-02-21T12:46:51;16.80;69.80
37782;DHT22;23621;50.878;4.584;2024-02-21T12:48:54;16.80;69.90
37782;DHT22;23621;50.878;4.584;2024-02-21T12:50:55;16.60;70.00